createdAt,value
2023-03-22T00:01:36.770Z,99.90
2023-03-22T00:04:05.079Z,99.90
2023-03-22T00:06:34.557Z,99.90
2023-03-22T00:09:02.616Z,99.90
2023-03-22T00:11:30.619Z,99.90
2023-03-22T00:13:58.974Z,99.90
2023-03-22T00:16:27.166Z,99.90
2023-03-22T00:18:55.274Z,99.90
2023-03-22T00:21:23.266Z,90.90
2023-03-22T00:23:52.692Z,99.90
2023-03-22T00:26:20.735Z,92.70
2023-03-22T00:28:48.719Z,71.50
2023-03-22T00:31:16.780Z,46.50
2023-03-22T00:33:44.769Z,44.70
2023-03-22T00:36:14.205Z,62.50
2023-03-22T00:38:43.699Z,51.70
2023-03-22T00:41:16.331Z,99.90
2023-03-22T00:43:45.349Z,99.90
2023-03-22T00:46:14.688Z,99.90
2023-03-22T00:48:44.381Z,99.90
2023-03-22T00:51:13.430Z,99.90
2023-03-22T00:53:43.362Z,88.40
2023-03-22T00:56:15.595Z,10.60
2023-03-22T00:58:44.121Z,1.00
2023-03-22T01:01:14.064Z,1.00
2023-03-22T01:03:42.725Z,1.00
2023-03-22T01:06:11.703Z,1.00
2023-03-22T01:08:39.863Z,1.00
2023-03-22T01:11:08.718Z,1.00
2023-03-22T01:13:39.446Z,1.00
2023-03-22T01:16:09.270Z,1.00
2023-03-22T01:18:37.485Z,1.00
2023-03-22T01:21:06.070Z,1.00
2023-03-22T01:23:34.503Z,1.00
2023-03-22T01:26:02.961Z,1.00
2023-03-22T01:28:31.042Z,1.00
2023-03-22T01:31:04.247Z,1.00
2023-03-22T01:33:32.870Z,1.00
2023-03-22T01:36:01.165Z,1.00
2023-03-22T01:38:29.479Z,1.00
2023-03-22T01:40:57.492Z,1.00
2023-03-22T01:43:25.489Z,1.00
2023-03-22T01:45:54.623Z,1.00
2023-03-22T01:48:27.692Z,1.00
2023-03-22T01:51:04.984Z,1.00
2023-03-22T01:53:36.894Z,1.00
2023-03-22T01:56:05.310Z,1.20
2023-03-22T01:58:36.985Z,25.50
2023-03-22T02:01:06.988Z,94.80
2023-03-22T02:03:44.290Z,91.50
2023-03-22T02:06:12.299Z,79.10
2023-03-22T02:08:40.731Z,99.90
2023-03-22T02:11:13.506Z,99.90
2023-03-22T02:14:05.339Z,44.00
2023-03-22T02:16:40.161Z,12.50
2023-03-22T02:19:42.374Z,19.40
2023-03-22T02:22:38.748Z,55.30
2023-03-22T02:25:31.538Z,28.70
2023-03-22T02:28:09.586Z,99.70
2023-03-22T02:31:14.687Z,93.90
2023-03-22T02:34:15.631Z,99.90
2023-03-22T02:37:07.635Z,99.90
2023-03-22T02:39:44.056Z,99.90
2023-03-22T02:42:24.751Z,99.90
2023-03-22T02:45:00.604Z,99.90
2023-03-22T02:47:38.533Z,99.90
2023-03-22T02:50:11.493Z,99.90
2023-03-22T02:52:44.012Z,82.20
2023-03-22T02:55:19.976Z,95.30
2023-03-22T02:57:51.419Z,99.90
2023-03-22T03:00:21.021Z,99.90
2023-03-22T03:02:53.461Z,99.90
2023-03-22T03:05:22.454Z,99.90
2023-03-22T03:07:55.381Z,99.90
2023-03-22T03:10:25.592Z,99.90
2023-03-22T03:12:53.599Z,99.90
2023-03-22T03:15:25.977Z,99.90
2023-03-22T03:17:59.259Z,99.90
2023-03-22T03:20:38.718Z,99.90
2023-03-22T03:23:20.413Z,99.90
2023-03-22T03:25:58.509Z,99.90
2023-03-22T03:28:38.327Z,99.90
2023-03-22T03:31:17.214Z,99.90
2023-03-22T03:33:51.895Z,99.90
2023-03-22T03:36:21.622Z,99.90
2023-03-22T03:38:53.500Z,99.90
2023-03-22T03:41:27.183Z,99.90
2023-03-22T03:43:58.460Z,99.90
2023-03-22T03:46:26.705Z,99.90
2023-03-22T03:48:58.009Z,99.90
2023-03-22T03:51:28.196Z,99.90
2023-03-22T03:53:56.445Z,99.90
2023-03-22T03:56:26.092Z,99.90
2023-03-22T03:58:54.055Z,99.90
2023-03-22T04:01:24.095Z,99.90
2023-03-22T04:03:55.344Z,99.90
2023-03-22T04:06:23.418Z,99.90
2023-03-22T04:08:53.592Z,99.90
2023-03-22T04:11:21.704Z,99.90
2023-03-22T04:13:51.159Z,99.90
2023-03-22T04:16:19.158Z,99.90
2023-03-22T04:18:47.245Z,99.90
2023-03-22T04:21:16.587Z,99.90
2023-03-22T04:23:46.600Z,99.90
2023-03-22T04:26:14.723Z,99.90
2023-03-22T04:28:42.666Z,99.90
2023-03-22T04:31:12.038Z,99.90
2023-03-22T04:33:40.225Z,99.90
2023-03-22T04:36:10.286Z,99.90
2023-03-22T04:38:40.053Z,98.00
2023-03-22T04:41:08.288Z,99.90
2023-03-22T04:43:39.315Z,68.30
2023-03-22T04:46:10.134Z,41.20
2023-03-22T04:48:40.517Z,38.70
2023-03-22T04:51:11.198Z,39.70
2023-03-22T04:53:39.878Z,48.20
2023-03-22T04:56:09.894Z,59.20
2023-03-22T04:58:39.928Z,38.40
2023-03-22T05:01:08.726Z,2.00
2023-03-22T05:03:37.552Z,1.00
2023-03-22T05:06:09.257Z,1.00
2023-03-22T05:08:38.096Z,5.10
2023-03-22T05:11:08.520Z,1.00
2023-03-22T05:13:37.387Z,1.00
2023-03-22T05:16:06.884Z,1.00
2023-03-22T05:18:34.955Z,1.00
2023-03-22T05:21:03.761Z,1.00
2023-03-22T05:23:33.240Z,1.00
2023-03-22T05:26:02.061Z,1.00
2023-03-22T05:28:31.824Z,1.00
2023-03-22T05:30:59.811Z,1.00
2023-03-22T05:33:28.085Z,1.00
2023-03-22T05:35:56.289Z,1.00
2023-03-22T05:38:24.713Z,1.00
2023-03-22T05:40:54.133Z,1.00
2023-03-22T05:43:22.182Z,1.00
2023-03-22T05:45:51.032Z,1.00
2023-03-22T05:48:19.380Z,1.00
2023-03-22T05:50:47.669Z,1.00
2023-03-22T05:53:15.722Z,1.00
2023-03-22T05:55:44.846Z,1.00
2023-03-22T05:58:18.908Z,1.00
2023-03-22T06:00:49.912Z,1.00
2023-03-22T06:03:18.306Z,1.00
2023-03-22T06:05:46.634Z,1.00
2023-03-22T06:08:14.660Z,1.00
2023-03-22T06:10:42.957Z,1.00
2023-03-22T06:13:11.064Z,1.00
2023-03-22T06:15:40.400Z,1.00
2023-03-22T06:18:08.660Z,1.00
2023-03-22T06:20:36.894Z,1.00
2023-03-22T06:23:04.927Z,1.00
2023-03-22T06:25:33.030Z,1.00
2023-03-22T06:28:01.122Z,1.00
2023-03-22T06:30:29.275Z,1.00
2023-03-22T06:33:00.557Z,1.00
2023-03-22T06:35:28.602Z,1.00
2023-03-22T06:37:56.608Z,1.00
2023-03-22T06:40:24.743Z,1.00
2023-03-22T06:42:54.395Z,1.00
2023-03-22T06:45:22.819Z,1.00
2023-03-22T06:47:51.436Z,1.00
2023-03-22T06:50:21.470Z,1.00
2023-03-22T06:52:49.573Z,1.00
2023-03-22T06:55:18.257Z,1.00
2023-03-22T06:57:46.451Z,1.00
2023-03-22T07:00:15.988Z,1.00
2023-03-22T07:02:44.268Z,1.00
2023-03-22T07:05:12.513Z,1.00
2023-03-22T07:07:42.154Z,1.00
2023-03-22T07:10:11.029Z,1.00
2023-03-22T07:12:39.515Z,1.00
2023-03-22T07:15:09.134Z,1.00
2023-03-22T07:17:37.268Z,1.00
2023-03-22T07:20:06.304Z,1.00
2023-03-22T07:22:34.532Z,1.00
2023-03-22T07:25:04.014Z,1.00
2023-03-22T07:27:32.159Z,1.00
2023-03-22T07:30:00.183Z,1.00
2023-03-22T07:32:28.501Z,1.00
2023-03-22T07:34:56.776Z,1.00
2023-03-22T07:37:25.034Z,1.00
2023-03-22T07:39:53.139Z,1.00
2023-03-22T07:42:22.734Z,1.00
2023-03-22T07:44:51.057Z,1.00
2023-03-22T07:47:30.814Z,1.00
2023-03-22T07:50:07.101Z,1.00
2023-03-22T07:52:35.217Z,1.00
2023-03-22T07:55:03.556Z,1.00
2023-03-22T07:57:33.591Z,1.00
2023-03-22T08:00:01.778Z,1.00
2023-03-22T08:02:30.023Z,1.00
2023-03-22T08:04:58.311Z,1.00
2023-03-22T08:07:26.578Z,1.00
2023-03-22T08:09:54.824Z,1.00
2023-03-22T08:12:22.972Z,1.00
2023-03-22T08:14:53.390Z,1.00
2023-03-22T08:17:21.371Z,1.00
2023-03-22T08:19:49.985Z,1.00
2023-03-22T08:22:18.358Z,1.00
2023-03-22T08:24:46.343Z,1.00
2023-03-22T08:27:14.301Z,1.00
2023-03-22T08:29:44.082Z,51.20
2023-03-22T08:32:13.521Z,99.90
2023-03-22T08:34:42.153Z,99.90
2023-03-22T08:37:11.833Z,52.10
2023-03-22T08:39:40.147Z,94.50
2023-03-22T08:42:08.199Z,66.80
2023-03-22T08:44:36.870Z,99.90
2023-03-22T08:47:05.172Z,99.90
2023-03-22T08:49:34.619Z,99.90
2023-03-22T08:52:02.562Z,99.90
2023-03-22T08:54:33.551Z,99.90
2023-03-22T08:57:03.444Z,99.90
2023-03-22T08:59:31.677Z,99.90
2023-03-22T09:01:59.809Z,99.90
2023-03-22T09:04:27.966Z,99.90
2023-03-22T09:06:57.350Z,99.90
2023-03-22T09:09:25.398Z,99.90
2023-03-22T09:11:53.415Z,99.90
2023-03-22T09:14:21.363Z,99.90
2023-03-22T09:16:49.572Z,99.90
2023-03-22T09:19:17.566Z,99.90
2023-03-22T09:21:45.660Z,99.90
2023-03-22T09:24:15.241Z,99.90
2023-03-22T09:26:43.445Z,99.90
2023-03-22T09:29:11.748Z,99.90
2023-03-22T09:31:39.905Z,99.90
2023-03-22T09:34:07.888Z,99.90
2023-03-22T09:36:36.113Z,99.90
2023-03-22T09:39:07.269Z,99.90
2023-03-22T09:41:40.755Z,99.90
2023-03-22T09:44:13.594Z,99.90
2023-03-22T09:46:45.916Z,99.90
2023-03-22T09:49:15.838Z,99.90
2023-03-22T09:51:46.148Z,99.90
2023-03-22T09:54:19.598Z,99.90
2023-03-22T09:56:54.631Z,99.90
2023-03-22T09:59:27.535Z,99.90
2023-03-22T10:02:00.558Z,99.90
2023-03-22T10:04:51.184Z,99.90
2023-03-22T10:07:29.072Z,99.90
2023-03-22T10:10:09.300Z,99.90
2023-03-22T10:12:46.958Z,99.90
2023-03-22T10:15:17.322Z,99.90
2023-03-22T10:17:49.268Z,99.90
2023-03-22T10:20:28.835Z,1.00
2023-03-22T10:22:59.339Z,1.00
2023-03-22T10:25:34.560Z,99.90
2023-03-22T10:28:11.262Z,99.90
2023-03-22T10:30:41.707Z,99.90
2023-03-22T10:33:17.571Z,99.90
2023-03-22T10:35:46.739Z,1.00
2023-03-22T10:38:22.812Z,1.00
2023-03-22T10:40:51.438Z,1.00
2023-03-22T10:43:24.809Z,1.00
2023-03-22T10:45:55.722Z,1.00
2023-03-22T10:48:29.607Z,1.00
2023-03-22T10:50:59.130Z,1.00
2023-03-22T10:53:33.764Z,1.00
2023-03-22T10:56:02.190Z,1.00
2023-03-22T10:58:33.641Z,99.90
2023-03-22T11:01:07.192Z,99.90
2023-03-22T11:03:40.818Z,99.90
2023-03-22T11:06:11.959Z,99.90
2023-03-22T11:08:42.821Z,99.90
2023-03-22T11:11:19.173Z,99.90
2023-03-22T11:13:55.395Z,99.90
2023-03-22T11:16:24.668Z,99.90
2023-03-22T11:18:52.843Z,99.90
2023-03-22T11:21:25.631Z,99.90
2023-03-22T11:23:59.414Z,99.90
2023-03-22T11:26:37.371Z,99.90
2023-03-22T11:29:15.055Z,99.90
2023-03-22T11:31:57.062Z,99.90
2023-03-22T11:34:27.974Z,99.90
2023-03-22T11:36:57.911Z,99.90
2023-03-22T11:39:28.523Z,99.90
2023-03-22T11:42:01.515Z,99.90
2023-03-22T11:44:35.489Z,99.90
2023-03-22T11:47:05.287Z,99.90
2023-03-22T11:49:40.846Z,99.90
2023-03-22T11:52:12.608Z,99.90
2023-03-22T11:54:42.629Z,99.90
2023-03-22T11:57:17.034Z,99.90
2023-03-22T11:59:54.499Z,99.90
2023-03-22T12:02:26.682Z,99.90
2023-03-22T12:04:57.307Z,99.90
2023-03-22T12:07:29.406Z,99.90
2023-03-22T12:10:02.573Z,99.90
2023-03-22T12:12:34.320Z,99.90
2023-03-22T12:15:07.012Z,99.90
2023-03-22T12:17:39.348Z,99.90
2023-03-22T12:20:14.178Z,99.90
2023-03-22T12:22:47.703Z,99.90
2023-03-22T12:25:18.187Z,99.90
2023-03-22T12:27:49.736Z,99.90
2023-03-22T12:30:23.074Z,99.90
2023-03-22T12:32:55.151Z,99.90
2023-03-22T12:35:27.496Z,99.90
2023-03-22T12:37:56.915Z,99.90
2023-03-22T12:40:26.979Z,99.90
2023-03-22T12:43:10.498Z,99.90
2023-03-22T12:45:43.548Z,99.90
2023-03-22T12:48:19.997Z,99.90
2023-03-22T12:50:53.297Z,99.90
2023-03-22T12:53:23.106Z,99.90
2023-03-22T12:55:52.230Z,99.90
2023-03-22T12:58:23.344Z,99.90
2023-03-22T13:00:56.000Z,99.90
2023-03-22T13:03:29.193Z,99.90
2023-03-22T13:06:04.514Z,99.90
2023-03-22T13:09:10.553Z,78.70
2023-03-22T13:11:39.190Z,32.00
2023-03-22T13:14:07.632Z,55.90
2023-03-22T13:17:08.594Z,30.90
2023-03-22T13:19:37.763Z,23.40
2023-03-22T13:22:20.218Z,10.20
2023-03-22T13:25:08.654Z,23.70
2023-03-22T13:27:39.623Z,61.60
2023-03-22T13:30:18.206Z,25.30
2023-03-22T13:32:54.561Z,1.00
2023-03-22T13:35:28.033Z,1.00
2023-03-22T13:38:01.724Z,51.90
2023-03-22T13:40:37.729Z,82.80
2023-03-22T13:43:14.455Z,51.90
2023-03-22T13:46:09.067Z,55.10
2023-03-22T13:48:54.263Z,85.40
2023-03-22T13:51:30.523Z,85.40
2023-03-22T13:54:03.522Z,21.00
2023-03-22T13:56:52.771Z,3.40
2023-03-22T13:59:27.219Z,4.20
2023-03-22T14:02:00.269Z,73.10
2023-03-22T14:04:38.344Z,13.50
2023-03-22T14:07:11.813Z,12.20
2023-03-22T14:09:45.094Z,76.70
2023-03-22T14:12:20.642Z,95.30
2023-03-22T14:14:53.020Z,99.90
2023-03-22T14:17:32.831Z,52.00
2023-03-22T14:20:05.345Z,99.90
